Time;durP1;ratioP1;P1;durP2;ratioP2;P2;SDS_P1;SDS_P2;PMS_P1;PMS_P2;Temp;Humidity;BMP_temperature;BMP_pressure;BME280_temperature;BME280_humidity;BME280_pressure;Samples;Min_cycle;Max_cycle;Signal;HPM_P1;HPM_P2
2023/06/04 00:01:44;;;;;;;8.35;3.65;;;;;;;;;;4949971;28;20049;-64
2023/06/04 00:04:10;;;;;;;8.80;4.05;;;;;;;;;;4934075;29;20378;-64
2023/06/04 00:06:36;;;;;;;12.50;3.90;;;;;;;;;;4951628;28;20176;-64
2023/06/04 00:09:03;;;;;;;9.40;3.85;;;;;;;;;;4950257;28;20093;-64
2023/06/04 00:11:29;;;;;;;7.57;3.33;;;;;;;;;;4950703;28;20047;-64
2023/06/04 00:13:55;;;;;;;9.95;3.83;;;;;;;;;;4951579;28;20039;-64
2023/06/04 00:16:21;;;;;;;8.93;3.47;;;;;;;;;;4951276;28;20408;-64
2023/06/04 00:18:47;;;;;;;10.88;4.15;;;;;;;;;;4950985;28;20031;-64
2023/06/04 00:21:13;;;;;;;9.23;3.78;;;;;;;;;;4950842;28;20145;-64
2023/06/04 00:23:39;;;;;;;8.60;3.50;;;;;;;;;;4949999;28;20039;-64
2023/06/04 00:26:05;;;;;;;8.10;3.60;;;;;;;;;;4947384;28;20058;-64
2023/06/04 00:28:31;;;;;;;8.30;3.63;;;;;;;;;;4949655;28;20039;-64
2023/06/04 00:30:57;;;;;;;10.55;4.55;;;;;;;;;;4947830;28;20114;-64
2023/06/04 00:33:23;;;;;;;7.75;3.70;;;;;;;;;;4955236;28;20531;-64
2023/06/04 00:35:49;;;;;;;9.73;3.70;;;;;;;;;;4954233;28;20047;-64
2023/06/04 00:38:15;;;;;;;9.65;4.18;;;;;;;;;;4954889;28;20390;-64
2023/06/04 00:40:41;;;;;;;7.60;3.45;;;;;;;;;;4955305;28;20050;-64
2023/06/04 00:43:08;;;;;;;9.35;3.58;;;;;;;;;;4954857;28;20043;-64
2023/06/04 00:45:34;;;;;;;11.20;4.63;;;;;;;;;;4953584;28;20477;-64
2023/06/04 00:48:00;;;;;;;11.57;4.40;;;;;;;;;;4955066;28;20640;-64
2023/06/04 00:50:26;;;;;;;10.90;4.38;;;;;;;;;;4953257;28;20039;-64
2023/06/04 00:52:52;;;;;;;7.90;3.75;;;;;;;;;;4954343;28;20062;-64
2023/06/04 00:55:18;;;;;;;9.57;3.80;;;;;;;;;;4950144;28;20784;-64
2023/06/04 00:57:45;;;;;;;10.55;4.38;;;;;;;;;;4945606;28;20557;-64
2023/06/04 01:00:11;;;;;;;8.95;4.05;;;;;;;;;;4954232;28;20050;-64
2023/06/04 01:02:39;;;;;;;10.35;3.97;;;;;;;;;;4952174;28;20047;-64
2023/06/04 01:05:12;;;;;;;7.75;3.75;;;;;;;;;;4953355;28;20046;-64
2023/06/04 01:07:40;;;;;;;9.93;4.10;;;;;;;;;;4950880;28;21005;-64
2023/06/04 01:10:06;;;;;;;11.27;4.15;;;;;;;;;;4947117;28;20522;-64
2023/06/04 01:12:32;;;;;;;10.93;3.65;;;;;;;;;;4945774;28;20074;-64
2023/06/04 01:14:58;;;;;;;10.18;3.95;;;;;;;;;;4952783;28;20074;-64
2023/06/04 01:17:37;;;;;;;7.47;3.70;;;;;;;;;;4954215;28;20137;-64
2023/06/04 01:20:11;;;;;;;10.45;4.35;;;;;;;;;;4952934;28;20054;-64
2023/06/04 01:22:37;;;;;;;;;;;;;;;;;;4951904;28;20055;-64
2023/06/04 01:25:05;;;;;;;12.40;4.20;;;;;;;;;;4946530;28;19918;-64
2023/06/04 01:27:32;;;;;;;8.85;3.65;;;;;;;;;;4943364;28;20401;-64
2023/06/04 01:29:58;;;;;;;12.07;3.90;;;;;;;;;;4951530;28;20102;-64
2023/06/04 01:32:24;;;;;;;10.25;3.80;;;;;;;;;;4953415;28;20393;-64
2023/06/04 01:34:51;;;;;;;9.38;4.28;;;;;;;;;;4952819;28;20193;-64
2023/06/04 01:37:18;;;;;;;9.38;3.33;;;;;;;;;;4950297;28;20047;-64
2023/06/04 01:39:44;;;;;;;11.32;3.75;;;;;;;;;;4954164;28;20081;-64
2023/06/04 01:42:10;;;;;;;9.27;3.58;;;;;;;;;;4945629;28;20050;-64
2023/06/04 01:44:36;;;;;;;9.73;3.85;;;;;;;;;;4948051;28;20043;-64
2023/06/04 01:47:02;;;;;;;10.45;4.10;;;;;;;;;;4952298;28;20178;-64
2023/06/04 01:49:28;;;;;;;12.07;4.03;;;;;;;;;;4951554;28;20054;-64
2023/06/04 01:51:56;;;;;;;9.68;3.67;;;;;;;;;;4953344;28;20047;-64
2023/06/04 01:54:22;;;;;;;14.63;4.90;;;;;;;;;;4953604;28;20057;-64
2023/06/04 01:56:48;;;;;;;9.88;3.95;;;;;;;;;;4945330;28;20078;-64
2023/06/04 01:59:16;;;;;;;9.43;4.47;;;;;;;;;;4952378;28;20047;-64
2023/06/04 02:01:42;;;;;;;9.35;4.70;;;;;;;;;;4953208;28;20057;-64
2023/06/04 02:04:08;;;;;;;12.35;4.68;;;;;;;;;;4953359;28;20050;-64
2023/06/04 02:06:34;;;;;;;10.70;4.60;;;;;;;;;;4953449;28;20043;-64
2023/06/04 02:09:01;;;;;;;10.02;4.60;;;;;;;;;;4952236;28;20086;-64
2023/06/04 02:11:27;;;;;;;10.80;5.57;;;;;;;;;;4953093;28;20509;-64
2023/06/04 02:13:53;;;;;;;10.45;5.43;;;;;;;;;;4948687;28;21078;-64
2023/06/04 02:16:19;;;;;;;11.00;5.78;;;;;;;;;;4946125;28;20051;-64
2023/06/04 02:18:45;;;;;;;13.30;6.10;;;;;;;;;;4951372;28;20043;-64
2023/06/04 02:21:12;;;;;;;13.80;4.60;;;;;;;;;;4952565;28;20044;-64
2023/06/04 02:23:38;;;;;;;11.13;6.03;;;;;;;;;;4953679;28;20054;-64
2023/06/04 02:26:05;;;;;;;9.77;5.72;;;;;;;;;;4953481;28;20035;-64
2023/06/04 02:28:31;;;;;;;13.32;6.13;;;;;;;;;;4953305;28;20043;-64
2023/06/04 02:30:57;;;;;;;11.70;6.47;;;;;;;;;;4952740;28;20044;-63
2023/06/04 02:33:23;;;;;;;16.55;6.85;;;;;;;;;;4953533;28;20051;-64
2023/06/04 02:35:49;;;;;;;15.45;7.65;;;;;;;;;;4947674;28;20039;-64
2023/06/04 02:38:15;;;;;;;14.15;6.85;;;;;;;;;;4953234;28;20053;-64
2023/06/04 02:40:43;;;;;;;15.93;7.38;;;;;;;;;;4953285;28;20039;-64
2023/06/04 02:43:09;;;;;;;16.27;7.20;;;;;;;;;;4951623;28;20051;-64
2023/06/04 02:45:35;;;;;;;16.83;7.60;;;;;;;;;;4952740;28;20094;-63
2023/06/04 02:48:01;;;;;;;12.65;7.10;;;;;;;;;;4952792;28;20071;-64
2023/06/04 02:50:30;;;;;;;15.80;6.90;;;;;;;;;;4952837;28;20086;-64
2023/06/04 02:52:56;;;;;;;13.70;6.68;;;;;;;;;;4952419;28;20058;-64
2023/06/04 02:55:22;;;;;;;19.02;7.93;;;;;;;;;;4934839;29;20050;-64
2023/06/04 02:57:48;;;;;;;9.95;6.07;;;;;;;;;;4948102;28;20689;-64
2023/06/04 03:00:15;;;;;;;16.98;6.68;;;;;;;;;;4948925;28;20047;-64
2023/06/04 03:02:42;;;;;;;13.10;6.20;;;;;;;;;;4949873;28;20091;-64
2023/06/04 03:05:10;;;;;;;12.32;6.80;;;;;;;;;;4951204;28;20039;-64
2023/06/04 03:07:46;;;;;;;13.20;7.25;;;;;;;;;;4944181;28;20040;-64
2023/06/04 03:10:13;;;;;;;13.27;7.35;;;;;;;;;;4946250;28;20488;-64
2023/06/04 03:12:39;;;;;;;12.48;7.00;;;;;;;;;;4946415;28;20497;-65
2023/06/04 03:15:05;;;;;;;11.82;6.53;;;;;;;;;;4949484;28;20043;-64
2023/06/04 03:17:32;;;;;;;11.40;6.03;;;;;;;;;;4934913;28;20046;-64
2023/06/04 03:19:58;;;;;;;8.82;6.10;;;;;;;;;;4951510;28;20055;-64
2023/06/04 03:22:24;;;;;;;13.40;6.20;;;;;;;;;;4950811;28;20047;-64
2023/06/04 03:24:52;;;;;;;10.35;6.15;;;;;;;;;;4951263;28;20035;-64
2023/06/04 03:27:18;;;;;;;12.73;5.72;;;;;;;;;;4945703;28;20055;-64
2023/06/04 03:29:45;;;;;;;11.25;6.00;;;;;;;;;;4939641;28;20043;-63
2023/06/04 03:32:12;;;;;;;12.63;6.40;;;;;;;;;;4948305;28;20082;-63
2023/06/04 03:34:38;;;;;;;13.07;6.20;;;;;;;;;;4952170;28;20055;-64
2023/06/04 03:37:05;;;;;;;9.85;5.85;;;;;;;;;;4948606;28;20039;-64
2023/06/04 03:39:31;;;;;;;12.10;5.47;;;;;;;;;;4951705;28;20045;-64
2023/06/04 03:41:57;;;;;;;11.38;5.43;;;;;;;;;;4950926;28;20122;-63
2023/06/04 03:44:23;;;;;;;11.82;5.65;;;;;;;;;;4951769;28;20039;-63
2023/06/04 03:46:49;;;;;;;12.90;5.90;;;;;;;;;;4954914;28;20055;-63
2023/06/04 03:49:17;;;;;;;11.57;5.97;;;;;;;;;;4955474;28;20045;-64
2023/06/04 03:51:43;;;;;;;12.23;6.07;;;;;;;;;;4953842;28;20097;-64
2023/06/04 03:54:09;;;;;;;11.32;6.15;;;;;;;;;;4951534;28;20055;-64
2023/06/04 03:56:36;;;;;;;9.05;5.53;;;;;;;;;;4950839;28;20058;-64
2023/06/04 03:59:02;;;;;;;9.25;6.15;;;;;;;;;;4951787;28;20071;-63
2023/06/04 04:01:28;;;;;;;18.23;9.23;;;;;;;;;;4947163;28;20051;-63
2023/06/04 04:03:54;;;;;;;10.38;6.47;;;;;;;;;;4943149;28;20047;-64
2023/06/04 04:06:21;;;;;;;10.07;6.20;;;;;;;;;;4950971;28;20122;-63
2023/06/04 04:08:48;;;;;;;10.55;5.72;;;;;;;;;;4944990;28;20039;-64
2023/06/04 04:11:15;;;;;;;11.30;5.93;;;;;;;;;;4950444;28;20453;-64
2023/06/04 04:13:41;;;;;;;11.93;6.22;;;;;;;;;;4951665;28;20098;-64
2023/06/04 04:16:07;;;;;;;10.38;6.22;;;;;;;;;;4949010;28;20043;-64
2023/06/04 04:18:34;;;;;;;12.77;7.25;;;;;;;;;;4951670;28;20047;-64
2023/06/04 04:21:00;;;;;;;9.82;6.07;;;;;;;;;;4951217;28;20564;-64
2023/06/04 04:23:27;;;;;;;11.15;6.25;;;;;;;;;;4951600;28;20176;-64
2023/06/04 04:25:53;;;;;;;11.30;6.20;;;;;;;;;;4950092;28;20054;-63
2023/06/04 04:28:19;;;;;;;9.88;6.15;;;;;;;;;;4951790;28;20099;-63
2023/06/04 04:30:46;;;;;;;10.07;6.18;;;;;;;;;;4942258;28;20300;-64
2023/06/04 04:33:15;;;;;;;11.10;6.25;;;;;;;;;;4943146;28;20185;-63
2023/06/04 04:35:42;;;;;;;9.80;6.40;;;;;;;;;;4952148;28;20408;-64
2023/06/04 04:38:10;;;;;;;13.65;6.78;;;;;;;;;;4951616;28;20243;-64
2023/06/04 04:40:36;;;;;;;10.80;6.32;;;;;;;;;;4944628;28;20047;-63
2023/06/04 04:43:03;;;;;;;13.05;6.95;;;;;;;;;;4951083;28;20032;-63
2023/06/04 04:45:29;;;;;;;12.40;6.78;;;;;;;;;;4950518;28;20043;-63
2023/06/04 04:47:55;;;;;;;11.88;6.45;;;;;;;;;;4951018;28;20039;-63
2023/06/04 04:50:21;;;;;;;9.52;5.60;;;;;;;;;;4951419;28;20414;-63
2023/06/04 04:52:47;;;;;;;11.32;6.07;;;;;;;;;;4951228;28;20039;-63
2023/06/04 04:55:13;;;;;;;12.18;6.20;;;;;;;;;;4951261;28;20105;-63
2023/06/04 04:57:40;;;;;;;9.85;6.05;;;;;;;;;;4951207;28;20126;-63
2023/06/04 05:00:07;;;;;;;11.88;5.60;;;;;;;;;;4951095;28;20043;-63
2023/06/04 05:02:35;;;;;;;12.68;6.38;;;;;;;;;;4934195;28;20104;-63
2023/06/04 05:05:01;;;;;;;13.80;7.05;;;;;;;;;;4951001;28;20035;-63
2023/06/04 05:07:27;;;;;;;12.82;6.40;;;;;;;;;;4947227;28;20107;-63
2023/06/04 05:09:53;;;;;;;10.57;6.28;;;;;;;;;;4947157;28;20037;-63
2023/06/04 05:12:19;;;;;;;11.85;6.03;;;;;;;;;;4946558;28;20518;-63
2023/06/04 05:14:45;;;;;;;11.63;6.20;;;;;;;;;;4950055;28;20156;-63
2023/06/04 05:17:12;;;;;;;12.93;6.40;;;;;;;;;;4950537;28;20207;-63
2023/06/04 05:19:39;;;;;;;10.15;6.50;;;;;;;;;;4954324;28;20043;-63
2023/06/04 05:22:05;;;;;;;11.55;6.13;;;;;;;;;;4954057;28;20046;-63
2023/06/04 05:24:32;;;;;;;10.40;6.28;;;;;;;;;;4954120;28;20059;-63
2023/06/04 05:26:58;;;;;;;10.48;5.97;;;;;;;;;;4953382;28;20043;-63
2023/06/04 05:29:24;;;;;;;11.98;6.70;;;;;;;;;;4948298;28;20050;-63
2023/06/04 05:31:51;;;;;;;10.18;6.13;;;;;;;;;;4952729;28;20560;-63
2023/06/04 05:34:18;;;;;;;12.23;5.93;;;;;;;;;;4948630;28;20102;-63
2023/06/04 05:36:44;;;;;;;10.27;5.45;;;;;;;;;;4954460;28;20051;-63
2023/06/04 05:39:10;;;;;;;11.43;6.00;;;;;;;;;;4954182;28;20047;-63
2023/06/04 05:41:36;;;;;;;10.60;5.60;;;;;;;;;;4951318;28;20043;-63
2023/06/04 05:44:03;;;;;;;10.75;5.97;;;;;;;;;;4954044;28;20050;-63
2023/06/04 05:46:29;;;;;;;13.23;6.30;;;;;;;;;;4954192;28;20134;-63
2023/06/04 05:48:55;;;;;;;13.35;5.82;;;;;;;;;;4952557;28;20090;-63
2023/06/04 05:51:21;;;;;;;11.48;5.97;;;;;;;;;;4953618;28;20413;-63
2023/06/04 05:53:47;;;;;;;10.13;5.72;;;;;;;;;;4954057;28;20038;-63
2023/06/04 05:56:13;;;;;;;10.60;5.78;;;;;;;;;;4954395;28;20043;-63
2023/06/04 05:58:39;;;;;;;10.57;5.63;;;;;;;;;;4953496;28;20398;-63
2023/06/04 06:01:06;;;;;;;9.95;5.50;;;;;;;;;;4952561;28;20513;-63
2023/06/04 06:03:32;;;;;;;11.90;6.03;;;;;;;;;;4953471;28;20047;-63
2023/06/04 06:06:00;;;;;;;12.93;5.65;;;;;;;;;;4952792;28;20050;-63
2023/06/04 06:08:26;;;;;;;11.82;5.45;;;;;;;;;;4945691;28;20054;-63
2023/06/04 06:10:52;;;;;;;11.15;5.32;;;;;;;;;;4952604;28;20035;-63
2023/06/04 06:13:18;;;;;;;12.00;5.25;;;;;;;;;;4952596;28;20524;-63
2023/06/04 06:15:46;;;;;;;10.65;5.38;;;;;;;;;;4945351;28;20043;-63
2023/06/04 06:18:13;;;;;;;11.52;5.18;;;;;;;;;;4953596;28;20039;-63
2023/06/04 06:20:39;;;;;;;8.85;4.28;;;;;;;;;;4953474;28;20043;-63
2023/06/04 06:23:08;;;;;;;11.38;4.28;;;;;;;;;;4952037;28;20043;-63
2023/06/04 06:25:34;;;;;;;11.18;4.20;;;;;;;;;;4951830;28;20173;-63
2023/06/04 06:28:00;;;;;;;9.50;4.43;;;;;;;;;;4936207;28;20047;-63
2023/06/04 06:30:26;;;;;;;8.60;3.67;;;;;;;;;;4952938;28;20039;-63
2023/06/04 06:32:53;;;;;;;9.20;3.40;;;;;;;;;;4951139;28;20174;-63
2023/06/04 06:35:19;;;;;;;8.80;3.67;;;;;;;;;;4953436;28;20217;-63
2023/06/04 06:37:45;;;;;;;7.45;3.03;;;;;;;;;;4952920;28;20110;-63
2023/06/04 06:40:11;;;;;;;9.35;3.42;;;;;;;;;;4953379;28;20178;-63
2023/06/04 06:42:37;;;;;;;11.77;3.88;;;;;;;;;;4944697;28;20654;-63
2023/06/04 06:45:04;;;;;;;8.70;3.00;;;;;;;;;;4944496;28;20595;-63
2023/06/04 06:47:30;;;;;;;8.30;3.15;;;;;;;;;;4948473;28;20097;-63
2023/06/04 06:49:56;;;;;;;7.78;2.80;;;;;;;;;;4952099;28;20039;-63
2023/06/04 06:52:22;;;;;;;9.20;3.10;;;;;;;;;;4952413;28;20043;-63
2023/06/04 06:54:48;;;;;;;8.48;3.30;;;;;;;;;;4943040;28;20055;-63
2023/06/04 06:57:15;;;;;;;9.13;2.78;;;;;;;;;;4945851;28;20501;-63
2023/06/04 06:59:41;;;;;;;11.35;3.50;;;;;;;;;;4944049;28;20055;-63
2023/06/04 07:02:07;;;;;;;10.48;2.85;;;;;;;;;;4952001;28;20134;-63
2023/06/04 07:04:33;;;;;;;12.27;3.35;;;;;;;;;;4951685;28;20489;-63
2023/06/04 07:06:59;;;;;;;10.40;2.85;;;;;;;;;;4946127;28;20272;-63
2023/06/04 07:09:25;;;;;;;7.90;2.90;;;;;;;;;;4939874;28;20035;-64
2023/06/04 07:11:51;;;;;;;8.63;2.28;;;;;;;;;;4943133;28;20355;-67
2023/06/04 07:14:17;;;;;;;9.27;2.65;;;;;;;;;;4949082;28;20043;-66
2023/06/04 07:16:43;;;;;;;7.18;2.70;;;;;;;;;;4934819;28;20402;-67
2023/06/04 07:19:09;;;;;;;7.53;2.90;;;;;;;;;;4949967;28;20122;-67
2023/06/04 07:21:35;;;;;;;7.38;2.60;;;;;;;;;;4946345;28;20094;-67
2023/06/04 07:24:01;;;;;;;8.43;2.97;;;;;;;;;;4945574;28;20035;-64
2023/06/04 07:26:30;;;;;;;12.00;2.70;;;;;;;;;;4947080;28;20047;-64
2023/06/04 07:28:57;;;;;;;7.88;3.47;;;;;;;;;;4945913;28;20054;-64
2023/06/04 07:31:23;;;;;;;5.32;2.08;;;;;;;;;;4945551;28;20492;-63
2023/06/04 07:33:49;;;;;;;7.22;2.72;;;;;;;;;;4944370;28;20086;-63
2023/06/04 07:36:15;;;;;;;8.38;2.40;;;;;;;;;;4950697;28;20394;-63
2023/06/04 07:38:41;;;;;;;6.97;2.50;;;;;;;;;;4952078;28;20043;-63
2023/06/04 07:41:07;;;;;;;8.07;2.10;;;;;;;;;;4951091;28;20185;-63
2023/06/04 07:43:35;;;;;;;6.85;2.47;;;;;;;;;;4942693;28;20135;-63
2023/06/04 07:46:01;;;;;;;6.97;2.25;;;;;;;;;;4949788;28;20369;-63
2023/06/04 07:48:30;;;;;;;8.70;2.63;;;;;;;;;;4949586;28;20043;-64
2023/06/04 07:50:59;;;;;;;7.45;2.30;;;;;;;;;;4949432;28;20059;-63
2023/06/04 07:53:26;;;;;;;6.65;2.45;;;;;;;;;;4947420;28;20430;-64
2023/06/04 07:55:52;;;;;;;6.38;1.85;;;;;;;;;;4943420;28;20374;-64
2023/06/04 07:58:18;;;;;;;8.73;2.10;;;;;;;;;;4946217;28;20066;-64
2023/06/04 08:00:44;;;;;;;7.47;2.38;;;;;;;;;;4942587;28;20123;-64
2023/06/04 08:03:10;;;;;;;5.88;2.10;;;;;;;;;;4946684;28;20131;-63
2023/06/04 08:05:36;;;;;;;7.10;2.22;;;;;;;;;;4946674;28;20036;-64
2023/06/04 08:08:03;;;;;;;6.63;2.35;;;;;;;;;;4951106;28;20157;-64
2023/06/04 08:10:29;;;;;;;7.82;2.15;;;;;;;;;;4950251;28;20043;-64
2023/06/04 08:12:56;;;;;;;8.48;2.00;;;;;;;;;;4951577;28;20051;-64
2023/06/04 08:15:22;;;;;;;8.38;2.30;;;;;;;;;;4950433;28;20114;-64
2023/06/04 08:17:48;;;;;;;6.53;2.08;;;;;;;;;;4944224;28;20051;-64
2023/06/04 08:20:14;;;;;;;8.05;2.90;;;;;;;;;;4951367;28;20462;-64
2023/06/04 08:22:40;;;;;;;7.13;2.22;;;;;;;;;;4951155;28;20122;-64
2023/06/04 08:25:06;;;;;;;7.10;1.92;;;;;;;;;;4951319;28;20118;-65
2023/06/04 08:27:33;;;;;;;5.55;2.10;;;;;;;;;;4950691;28;20401;-64
2023/06/04 08:29:59;;;;;;;12.20;2.40;;;;;;;;;;4951616;28;20047;-64
2023/06/04 08:32:25;;;;;;;7.30;2.42;;;;;;;;;;4951283;28;20572;-64
2023/06/04 08:34:51;;;;;;;10.00;2.88;;;;;;;;;;4951704;28;20106;-64
2023/06/04 08:37:18;;;;;;;7.30;2.00;;;;;;;;;;4950155;28;20051;-64
2023/06/04 08:39:44;;;;;;;5.45;1.90;;;;;;;;;;4951468;28;20620;-63
2023/06/04 08:42:19;;;;;;;5.70;2.03;;;;;;;;;;4951308;28;20179;-63
2023/06/04 08:44:45;;;;;;;6.53;2.05;;;;;;;;;;4947250;28;20051;-64
2023/06/04 08:47:13;;;;;;;7.40;2.00;;;;;;;;;;4951847;28;20035;-64
2023/06/04 08:49:41;;;;;;;7.13;1.88;;;;;;;;;;4951490;28;20412;-64
2023/06/04 08:52:07;;;;;;;7.40;1.90;;;;;;;;;;4952064;28;20035;-64
2023/06/04 08:54:33;;;;;;;7.70;2.22;;;;;;;;;;4954005;28;20043;-64
2023/06/04 08:57:00;;;;;;;7.18;2.05;;;;;;;;;;4955601;28;20075;-64
2023/06/04 08:59:28;;;;;;;7.75;2.22;;;;;;;;;;4954226;28;20416;-64
2023/06/04 09:01:54;;;;;;;6.50;2.08;;;;;;;;;;4954702;28;20066;-64
2023/06/04 09:04:21;;;;;;;6.70;1.90;;;;;;;;;;4955289;28;20068;-64
2023/06/04 09:06:47;;;;;;;7.75;2.55;;;;;;;;;;4954613;28;20134;-64
2023/06/04 09:09:15;;;;;;;5.50;1.83;;;;;;;;;;4955173;28;20043;-64
2023/06/04 09:11:51;;;;;;;7.00;2.45;;;;;;;;;;4954392;28;20118;-64
2023/06/04 09:14:17;;;;;;;5.78;2.00;;;;;;;;;;4947835;28;20489;-64
2023/06/04 09:16:44;;;;;;;6.95;2.15;;;;;;;;;;4953984;28;20393;-64
2023/06/04 09:19:10;;;;;;;6.97;1.92;;;;;;;;;;4956523;28;20049;-64
2023/06/04 09:21:46;;;;;;;6.40;1.88;;;;;;;;;;4959193;28;20094;-64
2023/06/04 09:24:12;;;;;;;5.95;1.67;;;;;;;;;;4953336;28;20042;-64
2023/06/04 09:26:38;;;;;;;6.05;1.83;;;;;;;;;;4954959;28;20047;-64
2023/06/04 09:29:05;;;;;;;6.45;2.13;;;;;;;;;;4954396;28;20409;-64
2023/06/04 09:31:36;;;;;;;7.43;2.13;;;;;;;;;;4954337;28;20059;-64
2023/06/04 09:34:03;;;;;;;5.80;2.20;;;;;;;;;;4953184;28;20039;-63
2023/06/04 09:36:32;;;;;;;5.95;2.00;;;;;;;;;;4954918;28;20098;-64
2023/06/04 09:38:58;;;;;;;5.97;2.25;;;;;;;;;;4954540;28;20417;-64
2023/06/04 09:41:25;;;;;;;5.78;1.60;;;;;;;;;;4960360;28;20039;-64
2023/06/04 09:43:52;;;;;;;5.90;1.67;;;;;;;;;;4937058;28;20039;-64
2023/06/04 09:46:18;;;;;;;7.47;2.13;;;;;;;;;;4954120;28;20556;-64
2023/06/04 09:48:44;;;;;;;7.93;2.10;;;;;;;;;;4954482;28;20098;-64
2023/06/04 09:51:11;;;;;;;6.63;1.80;;;;;;;;;;4954195;28;20378;-64
2023/06/04 09:53:37;;;;;;;5.80;1.83;;;;;;;;;;4954237;28;20047;-64
2023/06/04 09:56:04;;;;;;;5.75;2.15;;;;;;;;;;4954553;28;20102;-65
2023/06/04 09:58:30;;;;;;;5.18;1.75;;;;;;;;;;4952937;28;20107;-64
2023/06/04 10:00:58;;;;;;;8.10;1.92;;;;;;;;;;4953920;28;20115;-64
2023/06/04 10:03:28;;;;;;;5.15;1.75;;;;;;;;;;4952265;28;20071;-64
2023/06/04 10:05:54;;;;;;;7.25;1.80;;;;;;;;;;4954395;28;20074;-64
2023/06/04 10:08:23;;;;;;;6.05;2.50;;;;;;;;;;4952858;28;20043;-65
2023/06/04 10:10:52;;;;;;;5.68;1.70;;;;;;;;;;4953016;28;20082;-63
2023/06/04 10:13:18;;;;;;;5.90;1.77;;;;;;;;;;4947721;28;20046;-64
2023/06/04 10:15:45;;;;;;;6.43;1.88;;;;;;;;;;4953874;28;20062;-64
2023/06/04 10:18:11;;;;;;;5.63;2.00;;;;;;;;;;4952748;28;20111;-64
2023/06/04 10:20:38;;;;;;;6.10;1.80;;;;;;;;;;4953736;28;20031;-63
2023/06/04 10:23:04;;;;;;;5.38;1.70;;;;;;;;;;4953265;28;20114;-64
2023/06/04 10:25:30;;;;;;;6.78;2.00;;;;;;;;;;4953896;28;20392;-64
2023/06/04 10:27:56;;;;;;;9.18;2.22;;;;;;;;;;4953338;28;20044;-63
2023/06/04 10:30:22;;;;;;;6.10;2.13;;;;;;;;;;4953736;28;20043;-64
2023/06/04 10:32:48;;;;;;;6.63;2.10;;;;;;;;;;4953446;28;20053;-63
2023/06/04 10:35:15;;;;;;;5.15;1.70;;;;;;;;;;4953569;28;20043;-63
2023/06/04 10:37:42;;;;;;;7.07;1.70;;;;;;;;;;4952050;28;20543;-63
2023/06/04 10:40:09;;;;;;;6.53;1.85;;;;;;;;;;4953335;28;20142;-63
2023/06/04 10:42:39;;;;;;;5.25;2.03;;;;;;;;;;4951237;28;20069;-64
2023/06/04 10:45:05;;;;;;;6.18;1.80;;;;;;;;;;4951816;28;20043;-63
2023/06/04 10:47:36;;;;;;;5.97;2.05;;;;;;;;;;4953410;28;20430;-63
2023/06/04 10:50:11;;;;;;;5.00;1.80;;;;;;;;;;4952826;28;20118;-63
2023/06/04 10:52:39;;;;;;;4.25;1.52;;;;;;;;;;4952776;28;20051;-64
2023/06/04 10:55:07;;;;;;;6.75;1.92;;;;;;;;;;4951179;28;20414;-63
2023/06/04 10:57:33;;;;;;;6.22;1.92;;;;;;;;;;4952080;28;20078;-63
2023/06/04 10:59:59;;;;;;;7.43;2.17;;;;;;;;;;4952808;28;20520;-63
2023/06/04 11:02:26;;;;;;;6.03;1.75;;;;;;;;;;4951196;28;20053;-63
2023/06/04 11:05:06;;;;;;;5.00;1.80;;;;;;;;;;4952781;28;20119;-64
2023/06/04 11:07:45;;;;;;;7.07;2.08;;;;;;;;;;4958695;28;20377;-64
2023/06/04 11:10:15;;;;;;;7.25;1.70;;;;;;;;;;4953322;28;20035;-63
2023/06/04 11:12:45;;;;;;;8.20;2.13;;;;;;;;;;4952652;28;20082;-64
2023/06/04 11:15:11;;;;;;;6.05;1.52;;;;;;;;;;4949757;28;20059;-63
2023/06/04 11:17:37;;;;;;;5.70;1.60;;;;;;;;;;4945961;28;20038;-64
2023/06/04 11:20:06;;;;;;;6.70;2.47;;;;;;;;;;4952986;28;20101;-63
2023/06/04 11:22:33;;;;;;;6.43;2.22;;;;;;;;;;4952397;28;20039;-64
2023/06/04 11:24:59;;;;;;;5.07;1.90;;;;;;;;;;4951487;28;20039;-63
2023/06/04 11:27:26;;;;;;;6.15;1.77;;;;;;;;;;4951001;28;20047;-63
2023/06/04 11:29:52;;;;;;;5.28;2.22;;;;;;;;;;4951370;28;20043;-63
2023/06/04 11:32:24;;;;;;;5.28;2.15;;;;;;;;;;4934700;29;20113;-63
2023/06/04 11:34:50;;;;;;;6.47;1.70;;;;;;;;;;4951451;28;20163;-64
2023/06/04 11:37:16;;;;;;;4.15;1.60;;;;;;;;;;4952388;28;20039;-64
2023/06/04 11:39:44;;;;;;;5.97;1.70;;;;;;;;;;4952666;28;20046;-64
2023/06/04 11:42:10;;;;;;;7.30;2.15;;;;;;;;;;4952092;28;20143;-66
2023/06/04 11:44:36;;;;;;;7.45;2.17;;;;;;;;;;4952058;28;20047;-64
2023/06/04 11:47:09;;;;;;;7.15;2.33;;;;;;;;;;4952087;28;20047;-63
2023/06/04 11:49:36;;;;;;;10.05;2.25;;;;;;;;;;4951101;28;20114;-63
2023/06/04 11:52:02;;;;;;;6.50;2.45;;;;;;;;;;4959946;28;20086;-63
2023/06/04 11:54:28;;;;;;;5.50;2.03;;;;;;;;;;4952465;28;20043;-63
2023/06/04 11:56:54;;;;;;;6.40;2.08;;;;;;;;;;4952342;28;20039;-63
2023/06/04 11:59:20;;;;;;;5.53;2.25;;;;;;;;;;4944113;28;20043;-63
2023/06/04 12:01:48;;;;;;;5.40;2.03;;;;;;;;;;4951577;28;20043;-63
2023/06/04 12:04:15;;;;;;;5.78;2.38;;;;;;;;;;4952285;28;20086;-63
2023/06/04 12:07:04;;;;;;;7.95;2.00;;;;;;;;;;4951511;28;20043;-63
2023/06/04 12:09:32;;;;;;;6.10;2.03;;;;;;;;;;4943423;28;20045;-63
2023/06/04 12:12:02;;;;;;;5.95;2.47;;;;;;;;;;4949115;28;20077;-63
2023/06/04 12:14:29;;;;;;;4.78;1.70;;;;;;;;;;4947547;28;20047;-63
2023/06/04 12:16:56;;;;;;;6.00;2.58;;;;;;;;;;4948327;28;20031;-63
2023/06/04 12:19:22;;;;;;;5.93;2.10;;;;;;;;;;4950979;28;20603;-63
2023/06/04 12:22:00;;;;;;;7.53;2.05;;;;;;;;;;4950969;28;20043;-63
2023/06/04 12:24:26;;;;;;;5.75;1.88;;;;;;;;;;4944375;28;20122;-63
2023/06/04 12:27:01;;;;;;;5.68;2.00;;;;;;;;;;4952195;28;20070;-63
2023/06/04 12:29:27;;;;;;;6.10;1.90;;;;;;;;;;4950142;28;20031;-63
2023/06/04 12:32:01;;;;;;;6.45;2.30;;;;;;;;;;4953721;28;20102;-63
2023/06/04 12:34:27;;;;;;;5.80;2.38;;;;;;;;;;4944484;28;20039;-63
2023/06/04 12:36:53;;;;;;;6.30;1.83;;;;;;;;;;4937213;28;20043;-63
2023/06/04 12:39:19;;;;;;;6.05;2.35;;;;;;;;;;4918181;28;20130;-63
2023/06/04 12:41:46;;;;;;;6.20;1.90;;;;;;;;;;4920820;28;20046;-63
2023/06/04 12:44:15;;;;;;;6.85;2.20;;;;;;;;;;4930146;28;20358;-63
2023/06/04 12:46:42;;;;;;;5.85;1.90;;;;;;;;;;4949932;28;20062;-64
2023/06/04 12:49:08;;;;;;;6.63;2.38;;;31.90;99.90;;;;;;4950689;28;20047;-64
2023/06/04 12:51:36;;;;;;;5.68;1.80;;;;;;;;;;4944339;28;20050;-64
2023/06/04 12:54:02;;;;;;;5.07;2.13;;;34.20;99.90;;;;;;4946613;28;20141;-64
2023/06/04 12:56:27;;;;;;;6.00;1.77;;;35.10;99.90;;;;;;4949176;28;20122;-64
2023/06/04 12:58:53;;;;;;;6.05;1.92;;;35.80;99.90;;;;;;4949621;28;20036;-64
2023/06/04 13:01:19;;;;;;;5.65;1.60;;;37.00;99.90;;;;;;4949888;28;20039;-65
2023/06/04 13:03:45;;;;;;;5.57;1.80;;;37.30;99.90;;;;;;4935036;23;20051;-60
2023/06/04 13:06:10;;;;;;;6.40;1.98;;;38.10;97.80;;;;;;4955101;28;20057;-59
2023/06/04 13:08:37;;;;;;;4.30;1.63;;;38.40;90.30;;;;;;4957231;28;20058;-58
2023/06/04 13:11:04;;;;;;;4.95;1.92;;;39.00;76.10;;;;;;4941019;28;20058;-59
2023/06/04 13:13:29;;;;;;;4.90;1.50;;;39.40;73.20;;;;;;4946301;28;20066;-59
2023/06/04 13:15:55;;;;;;;3.72;1.40;;;39.90;57.70;;;;;;4957705;28;20500;-58
2023/06/04 13:18:23;;;;;;;5.30;1.60;;;40.80;35.90;;;;;;4955282;28;20063;-60
2023/06/04 13:20:49;;;;;;;4.60;1.60;;;41.00;48.70;;;;;;4956051;28;20039;-59
2023/06/04 13:23:15;;;;;;;5.28;1.70;;;41.00;43.20;;;;;;4934557;28;20046;-58
2023/06/04 13:25:41;;;;;;;4.28;1.52;;;41.10;34.10;;;;;;4948776;28;20035;-61
2023/06/04 13:28:07;;;;;;;5.75;1.83;;;41.30;31.80;;;;;;4949590;28;20049;-60
2023/06/04 13:30:36;;;;;;;5.97;1.70;;;41.20;29.30;;;;;;4935738;28;20182;-59
2023/06/04 13:33:02;;;;;;;6.82;1.77;;;41.70;24.00;;;;;;4954238;28;20047;-59
2023/06/04 13:35:28;;;;;;;4.47;1.45;;;41.40;21.10;;;;;;4918253;28;20101;-58
2023/06/04 13:37:55;;;;;;;5.82;2.05;;;;;;;;;;4943697;28;20062;-59
2023/06/04 13:40:21;;;;;;;5.13;1.80;;;41.30;9.10;;;;;;4935090;28;20050;-60
2023/06/04 13:42:47;;;;;;;5.25;1.77;;;41.50;15.40;;;;;;4950174;28;20026;-58
2023/06/04 13:45:13;;;;;;;4.13;1.80;;;41.40;15.10;;;;;;4952665;28;20069;-58
2023/06/04 13:47:38;;;;;;;4.65;1.70;;;41.50;10.80;;;;;;4947894;28;20054;-58
2023/06/04 13:50:05;;;;;;;5.30;1.92;;;41.50;8.70;;;;;;4951534;28;20041;-60
2023/06/04 13:52:31;;;;;;;4.63;1.65;;;41.70;1.00;;;;;;4948144;28;20053;-58
2023/06/04 13:54:58;;;;;;;7.75;2.17;;;41.80;1.00;;;;;;4954104;28;20035;-59
2023/06/04 13:57:25;;;;;;;7.05;1.90;;;42.00;1.00;;;;;;4935709;28;20105;-60
2023/06/04 13:59:51;;;;;;;7.50;1.83;;;41.00;1.00;;;;;;4953744;28;20038;-60
2023/06/04 14:02:17;;;;;;;4.93;1.60;;;42.10;1.00;;;;;;4955364;28;20436;-60
2023/06/04 14:04:42;;;;;;;4.45;1.63;;;42.60;1.00;;;;;;4951979;28;20055;-60
2023/06/04 14:07:08;;;;;;;5.35;2.42;;;42.50;1.00;;;;;;4930600;28;20421;-59
2023/06/04 14:09:35;;;;;;;5.57;1.90;;;42.90;1.00;;;;;;4947025;28;20027;-59
2023/06/04 14:12:02;;;;;;;4.75;1.60;;;42.80;1.00;;;;;;4933639;28;20046;-58
2023/06/04 14:14:30;;;;;;;5.53;1.60;;;42.40;1.00;;;;;;4954673;28;20069;-60
2023/06/04 14:16:59;;;;;;;5.63;2.08;;;;;;;;;;4933236;28;20038;-60
2023/06/04 14:19:25;;;;;;;6.45;1.80;;;41.80;1.00;;;;;;4952233;28;20089;-59
2023/06/04 14:21:50;;;;;;;6.93;1.80;;;41.90;1.00;;;;;;4951729;28;20765;-59
2023/06/04 14:24:16;;;;;;;6.20;1.85;;;41.70;1.00;;;;;;4954712;28;20141;-59